Погода Алто Арагуаяна неделю

Мату-Гросу, Бразилия

25 - 31 июля
  • 25июля
    Сегодня
    +13°
    +33°
    Ясно и безоблачно
    ВремяПогодаТемператураВлажностьДавлениеВетер, м/сВероятность осадков
    02:00Ясно и безоблачно+15°C53 %710 мм2.8 м/с5 %
    05:00Ясно и безоблачно+15°C57 %710 мм1.7 м/с5 %
    08:00Ясно и безоблачно+21°C41 %712 мм0.8 м/с5 %
    11:00Ясно и безоблачно+30°C21 %713 мм1.5 м/с5 %
    14:00Ясно и безоблачно+32°C19 %711 мм2.3 м/с5 %
    17:00Ясно и безоблачно+30°C27 %710 мм1.2 м/с5 %
    20:00Ясно и безоблачно+24°C32 %710 мм2.5 м/с5 %
    23:00Практически безоблачно+19°C40 %709 мм2.1 м/с5 %
  • 26июля
    Пятница
    +14°
    +33°
    Ясно и безоблачно
    ВремяПогодаТемператураВлажностьДавлениеВетер, м/сВероятность осадков
    02:00Практически безоблачно+16°C46 %708 мм2.3 м/с5 %
    05:00Небольшая облачность+14°C51 %708 мм2.5 м/с5 %
    08:00Ясно и безоблачно+22°C32 %711 мм2.6 м/с5 %
    11:00Ясно и безоблачно+30°C20 %712 мм4.0 м/с5 %
    14:00Ясно и безоблачно+32°C19 %710 мм1.9 м/с5 %
    17:00Практически безоблачно+30°C29 %709 мм1.5 м/с5 %
    20:00Облачно с прояснениями+23°C33 %709 мм2.2 м/с5 %
    23:00Практически безоблачно+19°C40 %709 мм2.4 м/с5 %
  • 27июля
    Суббота
    +14°
    +33°
    Ясно и безоблачно
    ВремяПогодаТемператураВлажностьДавлениеВетер, м/сВероятность осадков
    02:00Ясно и безоблачно+16°C49 %708 мм2.2 м/с5 %
    05:00Ясно и безоблачно+16°C50 %708 мм1.3 м/с5 %
    08:00Ясно и безоблачно+21°C38 %711 мм1.0 м/с5 %
    11:00Ясно и безоблачно+30°C20 %712 мм3.7 м/с5 %
    14:00Ясно и безоблачно+33°C16 %710 мм2.5 м/с5 %
    17:00Ясно и безоблачно+30°C23 %710 мм1.7 м/с5 %
    20:00Ясно и безоблачно+23°C32 %710 мм2.5 м/с5 %
    23:00Ясно и безоблачно+20°C35 %710 мм2.2 м/с5 %
  • 28июля
    Воскресенье
    +16°
    +34°
    Ясно и безоблачно
    ВремяПогодаТемператураВлажностьДавлениеВетер, м/сВероятность осадков
    02:00Ясно и безоблачно+17°C46 %709 мм2.6 м/с5 %
    05:00Ясно и безоблачно+16°C50 %709 мм2.0 м/с5 %
    08:00Ясно и безоблачно+23°C34 %711 мм1.6 м/с5 %
    11:00Ясно и безоблачно+31°C21 %712 мм4.6 м/с5 %
    14:00Ясно и безоблачно+34°C20 %711 мм3.4 м/с5 %
    17:00Ясно и безоблачно+32°C23 %710 мм2.3 м/с5 %
    20:00Ясно и безоблачно+25°C32 %711 мм2.2 м/с5 %
    23:00Ясно и безоблачно+21°C36 %710 мм2.5 м/с5 %
Мы используем cookies
Соглашаюсь